Time;durP1;ratioP1;P1;durP2;ratioP2;P2;SDS_P1;SDS_P2;PMS_P1;PMS_P2;Temp;Humidity;BMP_temperature;BMP_pressure;BME280_temperature;BME280_humidity;BME280_pressure;Samples;Min_cycle;Max_cycle;Signal;HPM_P1;HPM_P2
2022/01/12 11:11:19;;;;;;;1.05;0.95;;;16.70;76.80;;;;;;10595219;27;20683;-75
2022/01/12 11:16:21;;;;;;;1.20;1.10;;;16.80;78.00;;;;;;10596960;27;20101;-75
2022/01/12 11:21:23;;;;;;;0.70;0.70;;;17.20;78.00;;;;;;10602298;27;20062;-75
2022/01/12 11:26:24;;;;;;;0.93;0.73;;;17.60;77.40;;;;;;10584192;27;20040;-75
2022/01/12 11:31:26;;;;;;;1.00;0.80;;;18.20;76.80;;;;;;10576505;27;20051;-75
2022/01/12 11:36:28;;;;;;;1.30;0.60;;;18.70;76.20;;;;;;10585164;27;20054;-75
2022/01/12 11:41:29;;;;;;;0.55;0.50;;;19.20;75.70;;;;;;10597192;28;20052;-75
2022/01/12 11:46:31;;;;;;;0.60;0.60;;;19.60;75.20;;;;;;10573134;27;20089;-74
2022/01/12 11:51:32;;;;;;;1.13;0.50;;;20.00;74.70;;;;;;10581726;28;20100;-75
2022/01/12 11:56:34;;;;;;;0.95;0.70;;;20.30;74.20;;;;;;10566913;28;20054;-75
2022/01/12 12:01:35;;;;;;;2.58;0.60;;;20.60;73.90;;;;;;10573606;27;20044;-77
2022/01/12 12:06:37;;;;;;;0.90;0.47;;;20.90;73.50;;;;;;10578278;27;20055;-75
2022/01/12 12:11:38;;;;;;;1.55;0.50;;;21.10;73.10;;;;;;10599641;28;20051;-75
2022/01/12 12:16:40;;;;;;;1.10;0.52;;;21.20;72.80;;;;;;10598280;28;20062;-75
2022/01/12 12:21:41;;;;;;;1.10;0.70;;;21.30;72.70;;;;;;10552101;27;20067;-75
2022/01/12 12:26:43;;;;;;;0.90;0.70;;;21.30;72.70;;;;;;10556760;28;20074;-75
2022/01/12 12:31:44;;;;;;;1.05;0.70;;;21.30;72.70;;;;;;10567631;27;20043;-75
2022/01/12 12:36:46;;;;;;;0.93;0.70;;;21.20;72.80;;;;;;10582733;28;20302;-74
2022/01/12 12:41:47;;;;;;;1.08;0.50;;;20.90;73.20;;;;;;10554089;28;20063;-75
2022/01/12 12:46:48;;;;;;;1.20;0.73;;;20.50;73.60;;;;;;10540232;28;20360;-74
2022/01/12 12:51:50;;;;;;;1.55;1.00;;;20.20;74.10;;;;;;10568208;28;20039;-74
2022/01/12 12:56:54;;;;;;;1.25;0.70;;;19.90;74.30;;;;;;10540539;28;20059;-74
2022/01/12 13:01:55;;;;;;;1.60;0.80;;;19.70;74.50;;;;;;10556596;28;20101;-75
2022/01/12 13:06:57;;;;;;;1.65;1.00;;;19.60;74.70;;;;;;10551936;28;20074;-73
2022/01/12 13:11:59;;;;;;;1.55;1.00;;;19.50;74.70;;;;;;10540540;28;20048;-74
2022/01/12 13:17:01;;;;;;;1.73;1.00;;;19.40;74.90;;;;;;10538811;28;20127;-74
2022/01/12 13:22:03;;;;;;;1.33;0.60;;;19.40;74.90;;;;;;10538513;28;20052;-74
2022/01/12 13:27:05;;;;;;;1.23;0.82;;;19.40;75.00;;;;;;10566322;28;20056;-74
2022/01/12 13:32:06;;;;;;;1.30;0.80;;;19.30;75.10;;;;;;10545801;28;20041;-74
2022/01/12 13:37:08;;;;;;;1.48;0.90;;;19.30;75.10;;;;;;10537767;28;20052;-74
2022/01/12 13:42:09;;;;;;;1.85;0.80;;;19.30;75.10;;;;;;10545990;28;20051;-74
2022/01/12 13:47:23;;;;;;;2.97;1.05;;;19.30;75.10;;;;;;10537496;28;20052;-74
2022/01/12 13:52:24;;;;;;;1.90;1.23;;;19.30;75.20;;;;;;10553710;28;20127;-74
2022/01/12 13:57:27;;;;;;;1.63;1.00;;;19.30;75.10;;;;;;10566251;28;20043;-74
2022/01/12 14:02:30;;;;;;;1.58;1.05;;;19.20;75.10;;;;;;10534415;28;20048;-73
2022/01/12 14:07:35;;;;;;;2.30;1.20;;;19.20;75.20;;;;;;10539986;28;20055;-74
2022/01/12 14:12:37;;;;;;;1.50;1.10;;;19.20;75.20;;;;;;10568960;28;20127;-74
2022/01/12 14:17:39;;;;;;;1.75;1.10;;;19.20;75.30;;;;;;10574611;28;20047;-74
2022/01/12 14:22:41;;;;;;;1.58;1.10;;;19.20;75.20;;;;;;10536528;27;20474;-75
2022/01/12 14:27:42;;;;;;;2.58;1.00;;;19.20;75.30;;;;;;10540560;28;20390;-75
2022/01/12 14:32:44;;;;;;;1.45;1.10;;;19.20;75.30;;;;;;10533723;28;20481;-73
2022/01/12 14:37:45;;;;;;;1.70;1.20;;;19.20;75.30;;;;;;10550667;28;20496;-74
2022/01/12 14:42:47;;;;;;;1.45;0.90;;;19.20;75.30;;;;;;10546781;28;20480;-73
2022/01/12 14:47:48;;;;;;;1.75;1.10;;;19.20;75.30;;;;;;10572142;28;20063;-74
2022/01/12 14:52:50;;;;;;;2.80;0.98;;;19.20;75.30;;;;;;10547452;28;20110;-74
2022/01/12 14:57:51;;;;;;;1.45;0.90;;;19.20;75.30;;;;;;10577659;28;20104;-73
2022/01/12 15:02:54;;;;;;;2.00;0.95;;;19.20;75.30;;;;;;10560248;28;20051;-74
2022/01/12 15:07:56;;;;;;;2.05;1.00;;;19.20;75.30;;;;;;10564795;28;20052;-73
2022/01/12 15:13:13;;;;;;;1.70;0.90;;;19.20;75.30;;;;;;10562846;28;20101;-74
2022/01/12 15:18:15;;;;;;;1.23;0.73;;;19.10;75.30;;;;;;10535016;28;20488;-74
2022/01/12 15:23:17;;;;;;;1.50;0.70;;;19.10;75.20;;;;;;10558930;28;20492;-73
2022/01/12 15:28:19;;;;;;;2.20;1.00;;;19.10;75.30;;;;;;10532552;28;20055;-73
2022/01/12 15:33:20;;;;;;;1.80;0.95;;;19.20;75.30;;;;;;10536937;28;20465;-74
2022/01/12 15:38:21;;;;;;;1.73;1.00;;;19.20;75.30;;;;;;10534597;28;20040;-74
2022/01/12 15:43:23;;;;;;;1.70;0.90;;;19.20;75.30;;;;;;10556999;28;20040;-74
2022/01/12 15:48:24;;;;;;;2.33;1.00;;;19.20;75.30;;;;;;10532812;28;20044;-75
2022/01/12 15:53:26;;;;;;;2.35;1.10;;;19.10;75.30;;;;;;10539664;28;20051;-74
2022/01/12 15:58:27;;;;;;;2.25;1.30;;;19.10;75.30;;;;;;10553449;27;20411;-74
2022/01/12 16:03:29;;;;;;;1.77;1.13;;;19.20;75.30;;;;;;10557915;27;20047;-72
2022/01/12 16:08:32;;;;;;;1.98;1.00;;;19.10;75.30;;;;;;10571935;27;20055;-74
2022/01/12 16:13:33;;;;;;;2.25;1.20;;;19.20;75.30;;;;;;10547263;27;20130;-74
2022/01/12 16:18:36;;;;;;;2.80;1.05;;;19.20;75.20;;;;;;10540402;27;20048;-74
2022/01/12 16:23:38;;;;;;;2.63;1.38;;;19.20;75.30;;;;;;10545653;27;20047;-73
2022/01/12 16:28:39;;;;;;;2.60;1.33;;;19.20;75.20;;;;;;10558229;28;20055;-74
2022/01/12 16:33:41;;;;;;;1.73;1.10;;;19.20;75.20;;;;;;10558094;27;20420;-74
2022/01/12 16:38:42;;;;;;;2.65;1.48;;;19.20;75.20;;;;;;10562458;27;20048;-74
2022/01/12 16:43:44;;;;;;;1.85;1.23;;;19.20;75.20;;;;;;10565579;27;20070;-75
2022/01/12 16:48:45;;;;;;;2.35;1.25;;;19.20;75.20;;;;;;10569517;28;20055;-75
2022/01/12 16:53:47;;;;;;;1.95;1.20;;;19.20;75.20;;;;;;10573954;27;20044;-72
2022/01/12 16:58:48;;;;;;;1.90;1.20;;;19.20;75.30;;;;;;10562850;27;20047;-73
2022/01/12 17:03:50;;;;;;;1.98;1.17;;;19.20;75.20;;;;;;10548334;27;20054;-74
2022/01/12 17:08:51;;;;;;;1.25;0.90;;;19.50;75.10;;;;;;10539308;28;20075;-74
2022/01/12 17:13:53;;;;;;;1.50;1.00;;;19.80;74.60;;;;;;10548354;28;20051;-74
2022/01/12 17:18:57;;;;;;;1.65;0.90;;;20.30;74.10;;;;;;10535822;27;20450;-75
2022/01/12 17:23:59;;;;;;;2.20;1.13;;;20.80;73.60;;;;;;10546173;27;20136;-74
2022/01/12 17:29:00;;;;;;;2.08;0.90;;;21.10;73.10;;;;;;10560907;28;20105;-74
2022/01/12 17:34:02;;;;;;;1.65;1.20;;;21.30;72.80;;;;;;10547561;28;20054;-74
2022/01/12 17:39:03;;;;;;;2.05;1.13;;;21.50;72.60;;;;;;10546437;28;20133;-75
2022/01/12 17:44:05;;;;;;;1.60;1.10;;;21.50;73.10;;;;;;10553683;28;20567;-74
2022/01/12 17:49:12;;;;;;;1.80;1.13;;;21.50;72.40;;;;;;10540748;28;20538;-75
2022/01/12 17:54:13;;;;;;;1.80;1.10;;;21.60;72.40;;;;;;10534016;28;20040;-75
2022/01/12 17:59:16;;;;;;;2.15;1.30;;;21.50;72.40;;;;;;10538033;28;20043;-74
2022/01/12 18:04:17;;;;;;;1.58;1.10;;;21.60;72.40;;;;;;10538781;27;20504;-75
2022/01/12 18:09:19;;;;;;;1.92;1.30;;;21.60;72.40;;;;;;10534332;27;20044;-74
2022/01/12 18:14:20;;;;;;;2.58;1.33;;;21.60;72.30;;;;;;10558557;27;20063;-75
2022/01/12 18:19:24;;;;;;;1.83;1.30;;;21.60;72.30;;;;;;10545735;27;20039;-75
2022/01/12 18:24:26;;;;;;;2.05;1.40;;;21.60;72.30;;;;;;10544036;27;20414;-75
2022/01/12 18:29:27;;;;;;;2.15;1.20;;;21.60;72.30;;;;;;10565000;28;20047;-75
2022/01/12 18:34:29;;;;;;;1.80;1.10;;;21.60;72.30;;;;;;10530428;27;20036;-75
2022/01/12 18:39:32;;;;;;;3.03;1.40;;;21.60;72.40;;;;;;10556723;28;20059;-75
2022/01/12 18:44:33;;;;;;;3.47;1.65;;;21.60;72.60;;;;;;10560909;28;20061;-75
2022/01/12 18:49:36;;;;;;;3.03;1.60;;;21.50;72.90;;;;;;10550568;28;20052;-75
2022/01/12 18:54:37;;;;;;;2.78;1.83;;;21.60;73.00;;;;;;10539122;28;20611;-75
2022/01/12 18:59:39;;;;;;;3.20;1.77;;;21.60;73.00;;;;;;10559257;28;20051;-75
2022/01/12 19:04:41;;;;;;;2.65;1.30;;;21.60;73.00;;;;;;10573108;28;20078;-74
2022/01/12 19:09:43;;;;;;;3.67;1.85;;;21.60;73.10;;;;;;10578131;28;20117;-75
2022/01/12 19:14:49;;;;;;;2.55;1.67;;;21.60;73.10;;;;;;10588095;28;20055;-75
2022/01/12 19:19:51;;;;;;;2.72;1.67;;;21.60;73.00;;;;;;10565361;28;20047;-74
2022/01/12 19:24:52;;;;;;;2.45;1.60;;;21.60;73.10;;;;;;10562294;28;20044;-75
2022/01/12 19:29:54;;;;;;;2.90;1.70;;;21.60;73.10;;;;;;10543204;28;20102;-75
2022/01/12 19:34:55;;;;;;;2.85;1.63;;;21.60;73.10;;;;;;10561999;28;20043;-75
2022/01/12 19:39:57;;;;;;;3.00;1.80;;;21.60;73.10;;;;;;10569237;27;20425;-74
2022/01/12 19:44:59;;;;;;;3.80;1.88;;;21.60;73.00;;;;;;10557566;28;20467;-74
2022/01/12 19:50:01;;;;;;;2.30;1.60;;;21.60;73.10;;;;;;10564986;28;20527;-74
2022/01/12 19:55:03;;;;;;;3.38;1.80;;;21.60;73.10;;;;;;10570393;28;20051;-74
2022/01/12 20:00:07;;;;;;;3.45;1.85;;;21.60;73.10;;;;;;10537169;28;20386;-74
2022/01/12 20:05:08;;;;;;;4.07;1.75;;;21.60;73.10;;;;;;10541648;27;20074;-75
2022/01/12 20:10:10;;;;;;;4.38;2.00;;;21.50;73.10;;;;;;10546671;27;20059;-75
2022/01/12 20:15:12;;;;;;;3.63;1.90;;;21.60;73.10;;;;;;10554062;28;20114;-75
2022/01/12 20:25:33;;;;;;;3.45;2.10;;;21.60;73.10;;;;;;10545024;28;20028;-75
2022/01/12 20:30:35;;;;;;;2.55;1.92;;;21.60;73.10;;;;;;10540980;28;20087;-75
2022/01/12 20:35:37;;;;;;;3.33;2.10;;;21.50;73.10;;;;;;10554623;28;20044;-74
2022/01/12 20:40:39;;;;;;;3.72;2.22;;;21.50;73.00;;;;;;10561317;28;20048;-74
2022/01/12 20:45:41;;;;;;;4.13;2.30;;;21.60;73.10;;;;;;10560728;28;20055;-74
2022/01/12 20:50:42;;;;;;;3.13;2.10;;;21.50;73.10;;;;;;10542691;28;20058;-75
2022/01/12 20:55:44;;;;;;;2.72;2.10;;;21.50;73.10;;;;;;10530643;28;20040;-75
2022/01/12 21:00:45;;;;;;;3.25;2.10;;;21.50;73.10;;;;;;10537098;27;20051;-74
2022/01/12 21:05:48;;;;;;;2.67;1.80;;;21.50;73.10;;;;;;10545750;28;20039;-74
2022/01/12 21:10:50;;;;;;;3.40;2.30;;;21.50;73.20;;;;;;10534926;28;20052;-74
2022/01/12 21:15:51;;;;;;;3.70;2.17;;;21.50;73.20;;;;;;10537232;28;20055;-74
2022/01/12 21:20:54;;;;;;;2.85;2.33;;;21.60;73.20;;;;;;10561010;28;20487;-74
2022/01/12 21:25:55;;;;;;;3.67;2.50;;;21.50;73.20;;;;;;10557523;27;20123;-74
2022/01/12 21:30:57;;;;;;;3.45;2.33;;;21.50;73.20;;;;;;10568683;27;20044;-74
2022/01/12 21:36:02;;;;;;;3.67;2.22;;;21.50;73.20;;;;;;10548355;28;20036;-74
2022/01/12 21:41:14;;;;;;;4.22;2.70;;;21.50;73.20;;;;;;10543103;27;20044;-74
2022/01/12 21:46:16;;;;;;;4.00;2.50;;;21.50;73.20;;;;;;10552568;28;20130;-73
2022/01/12 21:51:17;;;;;;;4.00;2.75;;;21.60;73.20;;;;;;10544418;28;20051;-74
2022/01/12 21:56:19;;;;;;;3.75;2.30;;;21.50;73.40;;;;;;10555027;27;20048;-73
2022/01/12 22:01:20;;;;;;;3.35;2.47;;;21.30;73.60;;;;;;10547899;27;20059;-74
2022/01/12 22:06:22;;;;;;;3.05;2.20;;;21.10;73.90;;;;;;10579551;28;20059;-74
2022/01/12 22:11:23;;;;;;;5.13;2.88;;;20.90;74.10;;;;;;10549644;28;20051;-74
2022/01/12 22:16:25;;;;;;;4.60;3.00;;;20.70;74.30;;;;;;10539482;28;20048;-74
2022/01/12 22:21:26;;;;;;;4.65;2.83;;;20.60;74.50;;;;;;10563561;28;20046;-74
2022/01/12 22:26:28;;;;;;;5.00;2.70;;;20.40;74.60;;;;;;10536292;28;20419;-74
2022/01/12 22:31:29;;;;;;;5.22;2.88;;;20.20;74.80;;;;;;10535900;28;20408;-74
2022/01/12 22:36:31;;;;;;;3.63;2.58;;;20.10;74.90;;;;;;10545112;28;20404;-75
2022/01/12 22:41:33;;;;;;;5.28;2.63;;;20.00;75.10;;;;;;10571183;27;20677;-73
2022/01/12 22:46:34;;;;;;;3.92;2.47;;;19.90;75.20;;;;;;10552601;28;20039;-74
2022/01/12 22:51:36;;;;;;;4.85;2.50;;;19.80;75.30;;;;;;10552131;28;20048;-74
2022/01/12 22:56:39;;;;;;;3.85;2.40;;;19.70;75.40;;;;;;10536075;28;20044;-74
2022/01/12 23:01:41;;;;;;;4.95;2.60;;;19.60;75.60;;;;;;10549845;28;20605;-74
2022/01/12 23:06:42;;;;;;;3.85;2.30;;;19.50;75.70;;;;;;10559328;28;20097;-74
2022/01/12 23:11:44;;;;;;;4.38;2.40;;;19.40;75.80;;;;;;10544893;28;20052;-73
2022/01/12 23:16:45;;;;;;;2.85;2.00;;;19.40;76.00;;;;;;10535173;28;20055;-74
2022/01/12 23:21:47;;;;;;;2.78;2.10;;;19.20;76.00;;;;;;10559698;28;20071;-74
2022/01/12 23:26:48;;;;;;;3.88;2.28;;;19.10;76.10;;;;;;10548633;28;20044;-73
2022/01/12 23:31:51;;;;;;;3.65;2.35;;;19.10;76.20;;;;;;10554264;28;20066;-74
2022/01/12 23:42:44;;;;;;;3.10;2.05;;;18.90;76.30;;;;;;10587197;28;20028;-74
2022/01/12 23:58:24;;;;;;;3.65;2.20;;;18.70;76.60;;;;;;10548630;28;20040;-74
